Three Churches, West Virginia
Current Conditions -  °F | °C
As of 9:08 PM on Wednesday 24 Dec 2014 (Local Time) from KCBE Reporting Station
Overcast Overcast  
Wind Chill: 41°   Ceiling: 700
Heat Index: 41°   Visibility: 0.5mi
Dew Point: 41°   Wind: 3mph
Humidity: 100%   Direction: 110°ESE
Pressure: 29.54"   Gusts: NA
Location:  39.2897°N, 78.7672°W
Report Text: KCBE 250208Z AUTO 11003KT 1/2SM OVC007 05/05 A2954 RMK AO1
Loading
Personal Weather Stations






























Interactive Weather Map New forecast layout! Learn more

10-Day Weather Forecast

Advertisements
Track Severe Weather on mobile